Scopus, Missouri
Current Conditions -  °F | °C
As of 12:53 PM on Tuesday 27 Jan 2015 (Local Time) from KCGI Reporting Station
Overcast Overcast  
Wind Chill: 40°   Ceiling: 3400
Heat Index: 45°   Visibility: 10mi
Dew Point: 33°   Wind: 10mph
Humidity: 63%   Direction: 360°N
Pressure: 30.14"   Gusts: NA
Location:  37.2968°N, 89.9579°W
Report Text: KCGI 271853Z 36009KT 10SM OVC034 07/01 A3014 RMK AO2 SLP207 T00720006
Loading
Personal Weather Stations






























Interactive Weather Map New forecast layout! Learn more

10-Day Weather Forecast

Advertisements
Track Severe Weather on mobile